Atlantic - Newfoundland: Past 24 Hour Conditions

 

St. John's Int'l Airport

01:30 AM NST 26 November 2014
This table is a summary of hourly weather conditions for the past 24 hours.
Date / Time
(NST)
Wind(knots) Conditions Visibility(km) Pressure(kPa) Air tempC) Relative humidity(%) Dew pointC)
26 November 2014
1:30 W 20 gust 29 Mainly Clear 24 100.6 8 95 7
0:30 W 22 gust 28 Mainly Clear 24 100.5 9 93 8
25 November 2014
23:30 W 19 gust 25 Mainly Clear 24 100.6 9 96 8
22:30 WSW 23 gust 32 Mainly Clear 24 100.5 9 96 9
21:30 WSW 19 gust 29 Mainly Clear 24 100.6 10 94 9
20:30 WSW 26 gust 34 Mainly Clear 24 100.6 10 95 9
19:30 WSW 28 gust 41 Partly Cloudy 24 100.6 12 93 10
18:30 WSW 26 gust 35 Mostly Cloudy 24 100.6 13 96 12
17:30 WSW 25 gust 35 Mostly Cloudy 24 100.6 12 95 11
16:30 WSW 28 gust 37 Mostly Cloudy 24 100.6 12 93 11
15:30 WSW 26 gust 39 Mostly Cloudy 24 100.6 12 93 11
14:30 W 27 gust 40 Mostly Cloudy 24 100.5 13 93 11
13:30 WSW 28 gust 38 Mostly Cloudy 24 100.5 13 94 12
12:30 WSW 27 gust 39 Light Rain 13 100.5 13 97 13
11:30 WSW 26 gust 40 Light Rain 6 100.6 13 97 13
10:30 WSW 33 gust 47 Light Rain 8 100.7 13 95 13
9:30 SW 28 gust 49 Light Rain 10 100.8 14 94 13
8:30 SSW 22 gust 35 Light Rain 8 100.9 12 96 12
7:30 S 27 gust 37 Light Rain 19 101.0 9 97 9
6:30 S 29 gust 39 Light Rain 10 101.2 7 97 6
5:30 S 26 gust 37 Light Rain 13 101.5 6 97 5
4:30 S 27 gust 39 Light Rain 13 101.8 5 96 4
3:30 S 26 gust 32 Mostly Cloudy 24 102.0 4 94 3
2:30 S 19 gust 26 Light Rain 16 102.2 2 96 2
1:30 S 16 gust 26 Light Snow 19 102.3 2 89 0
 
Map of Atlantic - Newfoundland marine weather areas Southwestern Grand Banks - 44138 Banquereau - 44139 Tail of the Bank - 44140 Nickerson Bank - 44251 Northeast Burgeo Bank - 44255 Blanc-Sablon Airport Cap Whittle Chevery Natashquan Airport Heath Point Miscou Island Grand Étang Ingonish Beach North Mountain St.Paul Island J.A. Douglas McCurdy Sydney Airport Charlottetown Airport East Point North Cape Argentia Bonavista Burgeo Cape Race Corner Brook Daniel's Harbour Englee Ferolle Point La Scie Port aux Basques Rocky Harbour Sagona Island St. Anthony Airport St. John's Int'l Airport St. Lawrence Stephenville Airport Twillingate Winterland Wreckhouse Cartwright Airport Mary's Harbour Grates Cove Pool's Island Marticot Island Long Pond Îles de la Madeleine Airport
Legend: buoyBuoy land stationLand Station